sensor_id;sensor_type;location;lat;lon;timestamp;pressure;altitude;pressure_sealevel;temperature;humidity
67842;BME280;54642;59.126;37.876;2023-04-04T00:02:00;100384.31;;;4.54;82.42
67842;BME280;54642;59.126;37.876;2023-04-04T00:04:26;100393.91;;;4.62;82.28
67842;BME280;54642;59.126;37.876;2023-04-04T00:06:53;100345.28;;;4.33;82.34
67842;BME280;54642;59.126;37.876;2023-04-04T00:09:19;100389.56;;;4.61;82.15
67842;BME280;54642;59.126;37.876;2023-04-04T00:11:46;100380.00;;;4.53;82.51
67842;BME280;54642;59.126;37.876;2023-04-04T00:14:12;100351.94;;;4.26;82.49
67842;BME280;54642;59.126;37.876;2023-04-04T00:16:38;100396.50;;;4.65;82.41
67842;BME280;54642;59.126;37.876;2023-04-04T00:19:04;100359.19;;;4.43;82.39
67842;BME280;54642;59.126;37.876;2023-04-04T00:21:30;100388.75;;;4.62;82.26
67842;BME280;54642;59.126;37.876;2023-04-04T00:23:56;100333.19;;;4.29;82.22
67842;BME280;54642;59.126;37.876;2023-04-04T00:26:23;100401.56;;;4.60;82.33
67842;BME280;54642;59.126;37.876;2023-04-04T00:28:49;100382.41;;;4.47;82.27
67842;BME280;54642;59.126;37.876;2023-04-04T00:31:15;100387.66;;;4.52;82.18
67842;BME280;54642;59.126;37.876;2023-04-04T00:33:42;100380.75;;;4.49;82.24
67842;BME280;54642;59.126;37.876;2023-04-04T00:36:08;100390.06;;;4.46;82.10
67842;BME280;54642;59.126;37.876;2023-04-04T00:38:34;100384.91;;;4.44;82.16
67842;BME280;54642;59.126;37.876;2023-04-04T00:41:00;100384.22;;;4.51;82.23
67842;BME280;54642;59.126;37.876;2023-04-04T00:43:26;100388.47;;;4.49;81.92
67842;BME280;54642;59.126;37.876;2023-04-04T00:45:52;100390.13;;;4.49;82.11
67842;BME280;54642;59.126;37.876;2023-04-04T00:48:19;100391.03;;;4.49;82.40
67842;BME280;54642;59.126;37.876;2023-04-04T00:50:45;100396.97;;;4.48;82.45
67842;BME280;54642;59.126;37.876;2023-04-04T00:53:11;100392.69;;;4.47;82.24
67842;BME280;54642;59.126;37.876;2023-04-04T00:55:38;100390.97;;;4.48;82.05
67842;BME280;54642;59.126;37.876;2023-04-04T00:58:04;100392.69;;;4.49;82.17
67842;BME280;54642;59.126;37.876;2023-04-04T01:00:35;100385.94;;;4.51;82.45
67842;BME280;54642;59.126;37.876;2023-04-04T01:03:02;100387.50;;;4.46;82.10
67842;BME280;54642;59.126;37.876;2023-04-04T01:05:30;100381.56;;;4.48;82.14
67842;BME280;54642;59.126;37.876;2023-04-04T01:07:57;100374.63;;;4.44;82.04
67842;BME280;54642;59.126;37.876;2023-04-04T01:10:23;100316.66;;;4.17;82.27
67842;BME280;54642;59.126;37.876;2023-04-04T01:12:49;100373.72;;;4.42;82.17
67842;BME280;54642;59.126;37.876;2023-04-04T01:15:16;100379.53;;;4.35;82.19
67842;BME280;54642;59.126;37.876;2023-04-04T01:17:43;100366.59;;;4.30;82.19
67842;BME280;54642;59.126;37.876;2023-04-04T01:20:13;100318.88;;;4.04;82.36
67842;BME280;54642;59.126;37.876;2023-04-04T01:22:45;100324.13;;;4.08;82.37
67842;BME280;54642;59.126;37.876;2023-04-04T01:25:13;100370.00;;;4.31;82.17
67842;BME280;54642;59.126;37.876;2023-04-04T01:27:43;100375.94;;;4.28;82.17
67842;BME280;54642;59.126;37.876;2023-04-04T01:30:13;100374.31;;;4.32;82.35
67842;BME280;54642;59.126;37.876;2023-04-04T01:33:00;100381.22;;;4.34;82.10
67842;BME280;54642;59.126;37.876;2023-04-04T01:35:52;100375.91;;;4.27;82.28
67842;BME280;54642;59.126;37.876;2023-04-04T01:41:02;100309.19;;;3.92;82.07
67842;BME280;54642;59.126;37.876;2023-04-04T01:43:31;100349.13;;;4.15;82.04
67842;BME280;54642;59.126;37.876;2023-04-04T01:45:59;100355.91;;;4.15;82.19
67842;BME280;54642;59.126;37.876;2023-04-04T01:48:26;100368.00;;;4.19;82.28
67842;BME280;54642;59.126;37.876;2023-04-04T01:50:55;100244.91;;;3.51;82.16
67842;BME280;54642;59.126;37.876;2023-04-04T01:53:23;100334.19;;;4.00;82.01
67842;BME280;54642;59.126;37.876;2023-04-04T01:55:49;100354.97;;;4.11;82.10
67842;BME280;54642;59.126;37.876;2023-04-04T01:58:16;100363.59;;;4.13;81.99
67842;BME280;54642;59.126;37.876;2023-04-04T02:00:42;100349.66;;;4.04;82.06
67842;BME280;54642;59.126;37.876;2023-04-04T02:03:08;100328.81;;;3.91;82.19
67842;BME280;54642;59.126;37.876;2023-04-04T02:05:34;100357.47;;;4.08;82.18
67842;BME280;54642;59.126;37.876;2023-04-04T02:08:00;100322.75;;;3.88;82.00
67842;BME280;54642;59.126;37.876;2023-04-04T02:10:38;100319.16;;;3.81;82.25
67842;BME280;54642;59.126;37.876;2023-04-04T02:13:04;100362.53;;;4.05;82.21
67842;BME280;54642;59.126;37.876;2023-04-04T02:15:32;100365.03;;;4.04;82.16
67842;BME280;54642;59.126;37.876;2023-04-04T02:17:58;100362.44;;;4.02;82.30
67842;BME280;54642;59.126;37.876;2023-04-04T02:20:24;100287.84;;;3.61;82.12
67842;BME280;54642;59.126;37.876;2023-04-04T02:22:51;100355.63;;;4.04;82.08
67842;BME280;54642;59.126;37.876;2023-04-04T02:25:19;100345.94;;;3.92;81.97
67842;BME280;54642;59.126;37.876;2023-04-04T02:27:45;100336.31;;;3.84;82.14
67842;BME280;54642;59.126;37.876;2023-04-04T02:30:12;100372.63;;;3.99;82.12
67842;BME280;54642;59.126;37.876;2023-04-04T02:32:38;100365.84;;;4.01;82.23
67842;BME280;54642;59.126;37.876;2023-04-04T02:35:07;100367.50;;;3.99;81.98
67842;BME280;54642;59.126;37.876;2023-04-04T02:37:35;100351.78;;;3.87;82.25
67842;BME280;54642;59.126;37.876;2023-04-04T02:40:05;100337.97;;;3.81;82.12
67842;BME280;54642;59.126;37.876;2023-04-04T02:42:35;100330.94;;;3.74;82.15
67842;BME280;54642;59.126;37.876;2023-04-04T02:45:01;100344.81;;;3.82;82.10
67842;BME280;54642;59.126;37.876;2023-04-04T02:47:28;100280.53;;;3.43;82.18
67842;BME280;54642;59.126;37.876;2023-04-04T02:49:54;100368.72;;;3.81;82.08
67842;BME280;54642;59.126;37.876;2023-04-04T02:52:23;100331.72;;;3.72;82.20
67842;BME280;54642;59.126;37.876;2023-04-04T02:54:49;100349.69;;;3.73;82.15
67842;BME280;54642;59.126;37.876;2023-04-04T02:57:27;100338.38;;;3.65;82.04
67842;BME280;54642;59.126;37.876;2023-04-04T02:59:53;100367.16;;;3.87;82.35
67842;BME280;54642;59.126;37.876;2023-04-04T03:02:19;100373.19;;;3.89;82.39
67842;BME280;54642;59.126;37.876;2023-04-04T03:04:44;100364.50;;;3.84;82.22
67842;BME280;54642;59.126;37.876;2023-04-04T03:07:10;100366.50;;;3.94;82.28
67842;BME280;54642;59.126;37.876;2023-04-04T03:09:37;100350.94;;;3.88;82.08
67842;BME280;54642;59.126;37.876;2023-04-04T03:12:03;100369.25;;;4.01;82.38
67842;BME280;54642;59.126;37.876;2023-04-04T03:14:30;100354.69;;;3.99;82.32
67842;BME280;54642;59.126;37.876;2023-04-04T03:16:57;100366.06;;;4.10;82.19
67842;BME280;54642;59.126;37.876;2023-04-04T03:19:23;100350.41;;;3.99;82.01
67842;BME280;54642;59.126;37.876;2023-04-04T03:21:51;100356.47;;;4.03;82.00
67842;BME280;54642;59.126;37.876;2023-04-04T03:24:16;100359.81;;;4.00;81.90
67842;BME280;54642;59.126;37.876;2023-04-04T03:26:43;100354.63;;;3.97;82.25
67842;BME280;54642;59.126;37.876;2023-04-04T03:29:11;100349.38;;;3.93;82.02
67842;BME280;54642;59.126;37.876;2023-04-04T03:31:37;100333.09;;;3.91;81.84
67842;BME280;54642;59.126;37.876;2023-04-04T03:34:03;100325.16;;;3.81;81.98
67842;BME280;54642;59.126;37.876;2023-04-04T03:36:30;100374.59;;;4.09;82.12
67842;BME280;54642;59.126;37.876;2023-04-04T03:38:56;100357.38;;;4.05;81.83
67842;BME280;54642;59.126;37.876;2023-04-04T03:41:22;100373.63;;;4.06;81.69
67842;BME280;54642;59.126;37.876;2023-04-04T03:43:48;100321.13;;;3.59;81.99
67842;BME280;54642;59.126;37.876;2023-04-04T03:46:14;100363.03;;;3.92;81.78
67842;BME280;54642;59.126;37.876;2023-04-04T03:48:43;100343.94;;;3.82;81.99
67842;BME280;54642;59.126;37.876;2023-04-04T03:51:09;100315.88;;;3.55;81.99
67842;BME280;54642;59.126;37.876;2023-04-04T03:53:37;100371.00;;;4.03;81.82
67842;BME280;54642;59.126;37.876;2023-04-04T03:56:03;100379.47;;;4.00;81.58
67842;BME280;54642;59.126;37.876;2023-04-04T03:58:29;100358.47;;;3.81;81.89
67842;BME280;54642;59.126;37.876;2023-04-04T04:00:55;100278.03;;;3.44;81.74
67842;BME280;54642;59.126;37.876;2023-04-04T04:03:22;100368.41;;;4.01;81.87
67842;BME280;54642;59.126;37.876;2023-04-04T04:05:49;100351.84;;;3.90;81.75
67842;BME280;54642;59.126;37.876;2023-04-04T04:08:15;100372.88;;;4.08;81.81
67842;BME280;54642;59.126;37.876;2023-04-04T04:10:41;100369.44;;;4.09;81.79
67842;BME280;54642;59.126;37.876;2023-04-04T04:13:07;100352.34;;;4.08;81.95
67842;BME280;54642;59.126;37.876;2023-04-04T04:15:33;100354.03;;;4.08;81.79
67842;BME280;54642;59.126;37.876;2023-04-04T04:18:01;100361.09;;;4.16;81.75
67842;BME280;54642;59.126;37.876;2023-04-04T04:20:28;100366.25;;;4.18;81.74
67842;BME280;54642;59.126;37.876;2023-04-04T04:22:54;100362.94;;;4.20;81.81
67842;BME280;54642;59.126;37.876;2023-04-04T04:25:20;100348.25;;;4.16;81.59
67842;BME280;54642;59.126;37.876;2023-04-04T04:27:56;100360.72;;;4.36;81.43
67842;BME280;54642;59.126;37.876;2023-04-04T04:30:22;100353.88;;;4.35;81.13
67842;BME280;54642;59.126;37.876;2023-04-04T04:32:49;100347.53;;;4.20;81.07
67842;BME280;54642;59.126;37.876;2023-04-04T04:35:17;100351.06;;;4.24;81.28
67842;BME280;54642;59.126;37.876;2023-04-04T04:37:44;100360.81;;;4.39;81.05
67842;BME280;54642;59.126;37.876;2023-04-04T04:40:10;100359.19;;;4.43;81.25
67842;BME280;54642;59.126;37.876;2023-04-04T04:42:44;100358.34;;;4.42;81.12
67842;BME280;54642;59.126;37.876;2023-04-04T04:45:12;100297.41;;;4.00;80.79
67842;BME280;54642;59.126;37.876;2023-04-04T04:47:42;100354.56;;;4.28;81.13
67842;BME280;54642;59.126;37.876;2023-04-04T04:50:13;100345.97;;;4.26;81.01
67842;BME280;54642;59.126;37.876;2023-04-04T04:52:43;100363.06;;;4.27;80.74
67842;BME280;54642;59.126;37.876;2023-04-04T04:55:09;100311.19;;;4.04;81.12
67842;BME280;54642;59.126;37.876;2023-04-04T04:57:41;100355.78;;;4.42;80.88
67842;BME280;54642;59.126;37.876;2023-04-04T05:00:14;100366.72;;;4.35;80.65
67842;BME280;54642;59.126;37.876;2023-04-04T05:02:44;100357.94;;;4.27;80.92
67842;BME280;54642;59.126;37.876;2023-04-04T05:05:13;100311.75;;;3.93;81.01
67842;BME280;54642;59.126;37.876;2023-04-04T05:07:44;100342.19;;;4.13;81.06
67842;BME280;54642;59.126;37.876;2023-04-04T05:10:11;100362.75;;;4.14;80.95
67842;BME280;54642;59.126;37.876;2023-04-04T05:12:44;100350.69;;;4.10;80.88
67842;BME280;54642;59.126;37.876;2023-04-04T05:15:13;100340.44;;;4.10;81.06
67842;BME280;54642;59.126;37.876;2023-04-04T05:17:42;100352.91;;;4.30;81.28
67842;BME280;54642;59.126;37.876;2023-04-04T05:20:09;100340.84;;;4.27;80.88
67842;BME280;54642;59.126;37.876;2023-04-04T05:22:44;100348.53;;;4.27;80.68
67842;BME280;54642;59.126;37.876;2023-04-04T05:25:13;100341.72;;;4.28;80.80
67842;BME280;54642;59.126;37.876;2023-04-04T05:27:46;100347.94;;;4.37;81.07
67842;BME280;54642;59.126;37.876;2023-04-04T05:30:15;100340.97;;;4.32;80.83
67842;BME280;54642;59.126;37.876;2023-04-04T05:32:52;100343.41;;;4.26;80.67
67842;BME280;54642;59.126;37.876;2023-04-04T05:35:23;100358.81;;;4.27;81.01
67842;BME280;54642;59.126;37.876;2023-04-04T05:37:50;100359.13;;;4.39;80.90
67842;BME280;54642;59.126;37.876;2023-04-04T05:40:17;100320.94;;;4.18;80.75
67842;BME280;54642;59.126;37.876;2023-04-04T05:42:56;100360.00;;;4.42;81.00
67842;BME280;54642;59.126;37.876;2023-04-04T05:45:27;100364.41;;;4.46;80.86
67842;BME280;54642;59.126;37.876;2023-04-04T05:47:53;100355.19;;;4.54;80.97
67842;BME280;54642;59.126;37.876;2023-04-04T05:50:21;100322.06;;;4.28;80.63
67842;BME280;54642;59.126;37.876;2023-04-04T05:52:52;100355.09;;;4.49;80.60
67842;BME280;54642;59.126;37.876;2023-04-04T05:55:18;100352.78;;;4.60;80.74
67842;BME280;54642;59.126;37.876;2023-04-04T05:57:50;100360.75;;;4.71;80.66
67842;BME280;54642;59.126;37.876;2023-04-04T06:00:22;100350.97;;;4.92;80.33
67842;BME280;54642;59.126;37.876;2023-04-04T06:02:59;100314.66;;;4.77;79.79
67842;BME280;54642;59.126;37.876;2023-04-04T06:05:25;100364.78;;;4.97;79.84
67842;BME280;54642;59.126;37.876;2023-04-04T06:07:51;100359.44;;;4.90;80.09
67842;BME280;54642;59.126;37.876;2023-04-04T06:10:18;100346.53;;;4.85;79.94
67842;BME280;54642;59.126;37.876;2023-04-04T06:12:44;100330.53;;;4.61;80.27
67842;BME280;54642;59.126;37.876;2023-04-04T06:15:11;100327.84;;;4.54;80.17
67842;BME280;54642;59.126;37.876;2023-04-04T06:17:38;100370.28;;;4.76;80.22
67842;BME280;54642;59.126;37.876;2023-04-04T06:20:08;100373.66;;;4.74;80.08
67842;BME280;54642;59.126;37.876;2023-04-04T06:22:40;100374.97;;;4.58;79.94
67842;BME280;54642;59.126;37.876;2023-04-04T06:25:07;100384.06;;;4.45;80.27
67842;BME280;54642;59.126;37.876;2023-04-04T06:27:36;100366.72;;;4.35;80.57
67842;BME280;54642;59.126;37.876;2023-04-04T06:30:05;100349.13;;;4.15;80.82
67842;BME280;54642;59.126;37.876;2023-04-04T06:32:32;100378.81;;;4.41;80.47
67842;BME280;54642;59.126;37.876;2023-04-04T06:34:59;100330.16;;;4.10;80.40
67842;BME280;54642;59.126;37.876;2023-04-04T06:37:39;100356.09;;;4.21;80.52
67842;BME280;54642;59.126;37.876;2023-04-04T06:40:18;100312.66;;;3.94;80.62
67842;BME280;54642;59.126;37.876;2023-04-04T06:42:49;100379.72;;;4.43;80.88
67842;BME280;54642;59.126;37.876;2023-04-04T06:45:15;100378.91;;;4.44;80.48
67842;BME280;54642;59.126;37.876;2023-04-04T06:47:42;100332.53;;;4.03;80.58
67842;BME280;54642;59.126;37.876;2023-04-04T06:50:09;100384.03;;;4.44;80.45
67842;BME280;54642;59.126;37.876;2023-04-04T06:52:36;100374.38;;;4.33;80.52
67842;BME280;54642;59.126;37.876;2023-04-04T06:55:02;100379.63;;;4.39;80.64
67842;BME280;54642;59.126;37.876;2023-04-04T06:57:28;100343.44;;;4.29;80.74
67842;BME280;54642;59.126;37.876;2023-04-04T06:59:54;100372.56;;;4.64;80.43
67842;BME280;54642;59.126;37.876;2023-04-04T07:02:20;100369.75;;;4.91;80.08
67842;BME280;54642;59.126;37.876;2023-04-04T07:04:46;100315.13;;;4.61;79.88
67842;BME280;54642;59.126;37.876;2023-04-04T07:07:12;100362.34;;;5.04;80.01
67842;BME280;54642;59.126;37.876;2023-04-04T07:09:38;100358.50;;;4.86;79.77
67842;BME280;54642;59.126;37.876;2023-04-04T07:12:04;100363.00;;;4.95;79.63
67842;BME280;54642;59.126;37.876;2023-04-04T07:14:30;100348.47;;;4.95;79.83
67842;BME280;54642;59.126;37.876;2023-04-04T07:16:56;100382.97;;;5.07;79.28
67842;BME280;54642;59.126;37.876;2023-04-04T07:19:22;100369.09;;;5.00;79.64
67842;BME280;54642;59.126;37.876;2023-04-04T07:21:53;100372.56;;;5.02;79.58
67842;BME280;54642;59.126;37.876;2023-04-04T07:24:20;100350.81;;;4.86;79.70
67842;BME280;54642;59.126;37.876;2023-04-04T07:26:46;100383.78;;;5.06;79.77
67842;BME280;54642;59.126;37.876;2023-04-04T07:29:12;100363.31;;;5.09;79.67
67842;BME280;54642;59.126;37.876;2023-04-04T07:31:38;100319.16;;;4.87;79.68
67842;BME280;54642;59.126;37.876;2023-04-04T07:34:04;100360.66;;;5.06;79.29
67842;BME280;54642;59.126;37.876;2023-04-04T07:36:30;100366.81;;;5.12;79.71
67842;BME280;54642;59.126;37.876;2023-04-04T07:38:56;100343.03;;;5.21;79.68
67842;BME280;54642;59.126;37.876;2023-04-04T07:41:22;100356.31;;;5.43;79.64
67842;BME280;54642;59.126;37.876;2023-04-04T07:43:48;100347.13;;;5.54;78.94
67842;BME280;54642;59.126;37.876;2023-04-04T07:46:14;100355.72;;;5.54;78.97
67842;BME280;54642;59.126;37.876;2023-04-04T07:48:41;100344.72;;;5.62;79.07
67842;BME280;54642;59.126;37.876;2023-04-04T07:51:07;100359.28;;;5.63;78.58
67842;BME280;54642;59.126;37.876;2023-04-04T07:53:33;100353.13;;;5.53;78.75
67842;BME280;54642;59.126;37.876;2023-04-04T07:55:59;100312.41;;;5.32;78.91
67842;BME280;54642;59.126;37.876;2023-04-04T07:58:34;100352.38;;;5.59;78.80
67842;BME280;54642;59.126;37.876;2023-04-04T08:01:01;100341.13;;;5.53;79.05
67842;BME280;54642;59.126;37.876;2023-04-04T08:03:28;100351.44;;;5.55;78.73
67842;BME280;54642;59.126;37.876;2023-04-04T08:05:54;100352.16;;;5.48;78.99
67842;BME280;54642;59.126;37.876;2023-04-04T08:08:20;100356.88;;;5.70;78.77
67842;BME280;54642;59.126;37.876;2023-04-04T08:10:46;100349.22;;;5.73;78.75
67842;BME280;54642;59.126;37.876;2023-04-04T08:13:14;100349.41;;;5.84;78.52
67842;BME280;54642;59.126;37.876;2023-04-04T08:15:40;100350.53;;;5.97;78.31
67842;BME280;54642;59.126;37.876;2023-04-04T08:18:05;100346.91;;;5.87;78.20
67842;BME280;54642;59.126;37.876;2023-04-04T08:20:31;100341.56;;;5.77;78.29
67842;BME280;54642;59.126;37.876;2023-04-04T08:22:57;100289.25;;;5.30;78.46
67842;BME280;54642;59.126;37.876;2023-04-04T08:25:23;100353.13;;;5.53;78.41
67842;BME280;54642;59.126;37.876;2023-04-04T08:27:49;100351.72;;;5.70;79.02
67842;BME280;54642;59.126;37.876;2023-04-04T08:30:15;100279.31;;;5.47;78.37
67842;BME280;54642;59.126;37.876;2023-04-04T08:32:42;100308.56;;;5.54;78.50
67842;BME280;54642;59.126;37.876;2023-04-04T08:35:11;100339.09;;;5.81;78.52
67842;BME280;54642;59.126;37.876;2023-04-04T08:37:37;100343.47;;;5.85;78.34
67842;BME280;54642;59.126;37.876;2023-04-04T08:40:04;100240.97;;;5.14;78.36
67842;BME280;54642;59.126;37.876;2023-04-04T08:42:34;100340.53;;;5.68;78.60
67842;BME280;54642;59.126;37.876;2023-04-04T08:45:05;100335.44;;;5.70;78.50
67842;BME280;54642;59.126;37.876;2023-04-04T08:47:32;100322.94;;;5.88;78.95
67842;BME280;54642;59.126;37.876;2023-04-04T08:50:04;100335.66;;;6.26;77.89
67842;BME280;54642;59.126;37.876;2023-04-04T08:52:32;100325.34;;;6.26;77.64
67842;BME280;54642;59.126;37.876;2023-04-04T08:55:00;100321.13;;;6.30;77.80
67842;BME280;54642;59.126;37.876;2023-04-04T08:57:28;100319.50;;;6.35;77.63
67842;BME280;54642;59.126;37.876;2023-04-04T08:59:54;100298.53;;;6.14;77.73
67842;BME280;54642;59.126;37.876;2023-04-04T09:02:27;100275.16;;;6.00;77.91
67842;BME280;54642;59.126;37.876;2023-04-04T09:04:55;100270.69;;;5.91;77.81
67842;BME280;54642;59.126;37.876;2023-04-04T09:07:24;100323.41;;;6.15;77.83
67842;BME280;54642;59.126;37.876;2023-04-04T09:09:51;100315.63;;;6.10;78.17
67842;BME280;54642;59.126;37.876;2023-04-04T09:12:18;100287.88;;;5.95;78.18
67842;BME280;54642;59.126;37.876;2023-04-04T09:14:47;100328.75;;;6.25;77.82
67842;BME280;54642;59.126;37.876;2023-04-04T09:17:15;100315.69;;;6.15;77.57
67842;BME280;54642;59.126;37.876;2023-04-04T09:19:41;100326.09;;;6.19;77.89
67842;BME280;54642;59.126;37.876;2023-04-04T09:22:07;100307.19;;;6.17;77.80
67842;BME280;54642;59.126;37.876;2023-04-04T09:24:41;100311.88;;;6.43;77.56
67842;BME280;54642;59.126;37.876;2023-04-04T09:27:09;100311.25;;;6.58;77.60
67842;BME280;54642;59.126;37.876;2023-04-04T09:29:37;100316.53;;;6.65;77.20
67842;BME280;54642;59.126;37.876;2023-04-04T09:32:15;100304.59;;;6.72;77.20
67842;BME280;54642;59.126;37.876;2023-04-04T09:34:42;100318.53;;;6.85;77.11
67842;BME280;54642;59.126;37.876;2023-04-04T09:37:09;100313.34;;;6.82;77.07
67842;BME280;54642;59.126;37.876;2023-04-04T09:39:39;100317.72;;;6.89;77.03
67842;BME280;54642;59.126;37.876;2023-04-04T09:42:06;100321.78;;;6.73;76.97
67842;BME280;54642;59.126;37.876;2023-04-04T09:44:35;100327.69;;;6.66;77.15
67842;BME280;54642;59.126;37.876;2023-04-04T09:47:26;100331.97;;;6.67;77.48
67842;BME280;54642;59.126;37.876;2023-04-04T09:49:56;100302.69;;;6.59;77.14
67842;BME280;54642;59.126;37.876;2023-04-04T09:52:22;100298.13;;;6.41;76.91
67842;BME280;54642;59.126;37.876;2023-04-04T09:54:58;100344.53;;;6.45;77.45
67842;BME280;54642;59.126;37.876;2023-04-04T09:57:29;100353.91;;;6.42;77.48
67842;BME280;54642;59.126;37.876;2023-04-04T09:59:59;100331.25;;;6.21;77.53
67842;BME280;54642;59.126;37.876;2023-04-04T10:02:29;100341.56;;;6.21;77.91
67842;BME280;54642;59.126;37.876;2023-04-04T10:04:56;100283.34;;;5.80;78.09
67842;BME280;54642;59.126;37.876;2023-04-04T10:07:29;100344.81;;;6.10;77.95
67842;BME280;54642;59.126;37.876;2023-04-04T10:09:55;100329.81;;;5.89;78.06
67842;BME280;54642;59.126;37.876;2023-04-04T10:12:23;100336.75;;;5.95;78.44
67842;BME280;54642;59.126;37.876;2023-04-04T10:15:00;100343.94;;;6.10;78.66
67842;BME280;54642;59.126;37.876;2023-04-04T10:17:30;100348.97;;;6.04;78.29
67842;BME280;54642;59.126;37.876;2023-04-04T10:20:03;100336.03;;;6.01;78.28
67842;BME280;54642;59.126;37.876;2023-04-04T10:22:37;100312.69;;;5.91;78.36
67842;BME280;54642;59.126;37.876;2023-04-04T10:25:04;100334.59;;;6.17;78.03
67842;BME280;54642;59.126;37.876;2023-04-04T10:27:31;100258.41;;;5.75;78.08
67842;BME280;54642;59.126;37.876;2023-04-04T10:29:58;100356.13;;;6.22;77.90
67842;BME280;54642;59.126;37.876;2023-04-04T10:32:49;100358.88;;;6.31;77.80
67842;BME280;54642;59.126;37.876;2023-04-04T10:35:20;100362.16;;;6.21;78.14
67842;BME280;54642;59.126;37.876;2023-04-04T10:37:57;100351.72;;;6.15;78.05
67842;BME280;54642;59.126;37.876;2023-04-04T10:40:26;100343.34;;;6.25;77.87
67842;BME280;54642;59.126;37.876;2023-04-04T10:42:54;100353.06;;;6.43;77.79
67842;BME280;54642;59.126;37.876;2023-04-04T10:45:22;100347.34;;;6.61;77.25
67842;BME280;54642;59.126;37.876;2023-04-04T10:47:49;100348.09;;;6.54;77.11
67842;BME280;54642;59.126;37.876;2023-04-04T10:50:15;100327.75;;;6.16;77.24
67842;BME280;54642;59.126;37.876;2023-04-04T10:52:43;100369.13;;;6.29;77.70
67842;BME280;54642;59.126;37.876;2023-04-04T10:55:13;100356.78;;;6.08;77.69
67842;BME280;54642;59.126;37.876;2023-04-04T10:57:45;100357.72;;;6.14;78.17
67842;BME280;54642;59.126;37.876;2023-04-04T11:00:14;100367.22;;;6.18;77.65
67842;BME280;54642;59.126;37.876;2023-04-04T11:05:36;100364.44;;;6.05;77.87
67842;BME280;54642;59.126;37.876;2023-04-04T11:08:10;100322.50;;;5.67;78.05
67842;BME280;54642;59.126;37.876;2023-04-04T11:10:47;100358.25;;;5.97;78.26
67842;BME280;54642;59.126;37.876;2023-04-04T11:16:00;100358.78;;;6.25;77.96
67842;BME280;54642;59.126;37.876;2023-04-04T11:21:01;100313.13;;;6.15;77.20
67842;BME280;54642;59.126;37.876;2023-04-04T11:28:59;100363.56;;;6.55;77.48
67842;BME280;54642;59.126;37.876;2023-04-04T11:31:28;100359.44;;;6.65;77.18
67842;BME280;54642;59.126;37.876;2023-04-04T11:34:07;100273.47;;;6.02;76.95
67842;BME280;54642;59.126;37.876;2023-04-04T11:39:12;100365.13;;;6.44;77.07
67842;BME280;54642;59.126;37.876;2023-04-04T11:41:52;100366.41;;;6.20;77.47
67842;BME280;54642;59.126;37.876;2023-04-04T11:44:19;100363.63;;;6.09;77.60
67842;BME280;54642;59.126;37.876;2023-04-04T11:46:47;100360.28;;;6.12;77.80
67842;BME280;54642;59.126;37.876;2023-04-04T11:49:14;100377.69;;;6.27;77.46
67842;BME280;54642;59.126;37.876;2023-04-04T11:51:41;100377.03;;;6.39;77.35
67842;BME280;54642;59.126;37.876;2023-04-04T11:54:14;100373.84;;;6.54;77.44
67842;BME280;54642;59.126;37.876;2023-04-04T11:56:44;100371.91;;;6.40;77.43
67842;BME280;54642;59.126;37.876;2023-04-04T11:59:11;100376.00;;;6.29;77.65
67842;BME280;54642;59.126;37.876;2023-04-04T12:01:38;100364.94;;;6.33;77.60
67842;BME280;54642;59.126;37.876;2023-04-04T12:04:05;100354.22;;;6.11;77.54
67842;BME280;54642;59.126;37.876;2023-04-04T12:06:31;100381.69;;;6.11;78.00
67842;BME280;54642;59.126;37.876;2023-04-04T12:09:02;100328.09;;;5.90;78.08
67842;BME280;54642;59.126;37.876;2023-04-04T12:11:29;100375.69;;;6.10;77.76
67842;BME280;54642;59.126;37.876;2023-04-04T12:13:55;100375.06;;;5.80;78.04
67842;BME280;54642;59.126;37.876;2023-04-04T12:16:22;100384.50;;;5.81;78.36
67842;BME280;54642;59.126;37.876;2023-04-04T12:18:48;100363.72;;;5.70;78.55
67842;BME280;54642;59.126;37.876;2023-04-04T12:21:14;100373.44;;;5.83;78.52
67842;BME280;54642;59.126;37.876;2023-04-04T12:23:40;100381.44;;;5.99;78.47
67842;BME280;54642;59.126;37.876;2023-04-04T12:26:07;100373.63;;;5.94;78.04
67842;BME280;54642;59.126;37.876;2023-04-04T12:28:34;100370.38;;;6.01;78.19
67842;BME280;54642;59.126;37.876;2023-04-04T12:31:04;100380.59;;;5.98;78.30
67842;BME280;54642;59.126;37.876;2023-04-04T12:33:34;100327.78;;;5.73;78.33
67842;BME280;54642;59.126;37.876;2023-04-04T12:36:01;100386.91;;;6.16;77.95
67842;BME280;54642;59.126;37.876;2023-04-04T12:38:31;100379.97;;;6.11;78.02
67842;BME280;54642;59.126;37.876;2023-04-04T12:40:58;100372.97;;;6.03;78.07
67842;BME280;54642;59.126;37.876;2023-04-04T12:43:27;100380.69;;;6.03;78.52
67842;BME280;54642;59.126;37.876;2023-04-04T12:45:56;100380.94;;;6.18;78.21
67842;BME280;54642;59.126;37.876;2023-04-04T12:48:27;100387.88;;;6.21;78.33
67842;BME280;54642;59.126;37.876;2023-04-04T12:51:03;100392.13;;;6.20;77.65
67842;BME280;54642;59.126;37.876;2023-04-04T12:53:29;100391.91;;;6.08;77.95
67842;BME280;54642;59.126;37.876;2023-04-04T12:56:04;100347.28;;;5.62;78.06
67842;BME280;54642;59.126;37.876;2023-04-04T12:58:30;100389.75;;;5.85;78.25
67842;BME280;54642;59.126;37.876;2023-04-04T13:00:58;100380.19;;;5.78;78.19
67842;BME280;54642;59.126;37.876;2023-04-04T13:03:26;100383.16;;;5.98;78.35
67842;BME280;54642;59.126;37.876;2023-04-04T13:05:53;100359.81;;;5.89;78.04
67842;BME280;54642;59.126;37.876;2023-04-04T13:08:19;100372.34;;;6.16;77.69
67842;BME280;54642;59.126;37.876;2023-04-04T13:13:37;100384.38;;;6.19;78.02
67842;BME280;54642;59.126;37.876;2023-04-04T13:16:06;100337.13;;;6.15;77.41
67842;BME280;54642;59.126;37.876;2023-04-04T13:18:37;100369.06;;;6.25;77.47